sensor_id;sensor_type;location;lat;lon;timestamp;temperature;humidity
45735;DHT22;31446;49.632;8.328;2023-11-21T00:05:13;9.80;99.90
45735;DHT22;31446;49.632;8.328;2023-11-21T00:20:21;9.80;99.90
45735;DHT22;31446;49.632;8.328;2023-11-21T00:35:27;9.70;99.90
45735;DHT22;31446;49.632;8.328;2023-11-21T00:50:33;9.60;99.90
45735;DHT22;31446;49.632;8.328;2023-11-21T01:05:39;9.60;99.90
45735;DHT22;31446;49.632;8.328;2023-11-21T01:20:46;9.70;99.90
45735;DHT22;31446;49.632;8.328;2023-11-21T01:35:52;9.70;99.90
45735;DHT22;31446;49.632;8.328;2023-11-21T01:50:59;9.70;99.90
45735;DHT22;31446;49.632;8.328;2023-11-21T02:06:06;9.70;99.90
45735;DHT22;31446;49.632;8.328;2023-11-21T02:21:12;9.70;99.90
45735;DHT22;31446;49.632;8.328;2023-11-21T02:36:19;9.70;99.90
45735;DHT22;31446;49.632;8.328;2023-11-21T02:51:25;9.60;99.90
45735;DHT22;31446;49.632;8.328;2023-11-21T03:06:31;9.60;99.90
45735;DHT22;31446;49.632;8.328;2023-11-21T03:21:37;9.30;99.90
45735;DHT22;31446;49.632;8.328;2023-11-21T03:36:43;9.40;99.90
45735;DHT22;31446;49.632;8.328;2023-11-21T03:51:50;9.50;99.90
45735;DHT22;31446;49.632;8.328;2023-11-21T04:06:56;9.50;99.90
45735;DHT22;31446;49.632;8.328;2023-11-21T04:22:02;9.50;99.90
45735;DHT22;31446;49.632;8.328;2023-11-21T04:37:08;9.50;99.90
45735;DHT22;31446;49.632;8.328;2023-11-21T04:52:15;9.50;99.90
45735;DHT22;31446;49.632;8.328;2023-11-21T05:07:21;9.60;99.90
45735;DHT22;31446;49.632;8.328;2023-11-21T05:22:27;9.60;99.90
45735;DHT22;31446;49.632;8.328;2023-11-21T05:37:33;9.60;99.90
45735;DHT22;31446;49.632;8.328;2023-11-21T05:52:40;9.60;99.90
45735;DHT22;31446;49.632;8.328;2023-11-21T06:07:46;9.50;99.90
45735;DHT22;31446;49.632;8.328;2023-11-21T06:22:52;9.50;99.90
45735;DHT22;31446;49.632;8.328;2023-11-21T06:37:59;9.40;99.90
45735;DHT22;31446;49.632;8.328;2023-11-21T06:53:06;9.50;99.90
45735;DHT22;31446;49.632;8.328;2023-11-21T07:08:15;9.60;99.90
45735;DHT22;31446;49.632;8.328;2023-11-21T07:23:22;9.60;99.90
45735;DHT22;31446;49.632;8.328;2023-11-21T07:38:29;9.70;99.90
45735;DHT22;31446;49.632;8.328;2023-11-21T07:53:36;9.90;99.90
45735;DHT22;31446;49.632;8.328;2023-11-21T08:08:43;9.90;99.90
45735;DHT22;31446;49.632;8.328;2023-11-21T08:23:49;9.90;99.90
45735;DHT22;31446;49.632;8.328;2023-11-21T08:38:58;9.90;99.90
45735;DHT22;31446;49.632;8.328;2023-11-21T08:54:04;9.90;99.90
45735;DHT22;31446;49.632;8.328;2023-11-21T09:09:11;9.90;99.90
45735;DHT22;31446;49.632;8.328;2023-11-21T09:24:17;10.10;99.90
45735;DHT22;31446;49.632;8.328;2023-11-21T09:39:23;10.30;99.90
45735;DHT22;31446;49.632;8.328;2023-11-21T09:54:30;10.40;99.90
45735;DHT22;31446;49.632;8.328;2023-11-21T10:09:37;10.40;99.90
45735;DHT22;31446;49.632;8.328;2023-11-21T10:24:44;10.60;99.90
45735;DHT22;31446;49.632;8.328;2023-11-21T10:39:50;10.70;99.90
45735;DHT22;31446;49.632;8.328;2023-11-21T10:54:56;10.80;99.90
45735;DHT22;31446;49.632;8.328;2023-11-21T11:10:03;11.40;99.90
45735;DHT22;31446;49.632;8.328;2023-11-21T11:25:30;11.90;99.90
45735;DHT22;31446;49.632;8.328;2023-11-21T11:40:45;12.50;99.90
45735;DHT22;31446;49.632;8.328;2023-11-21T11:55:58;12.40;99.90
45735;DHT22;31446;49.632;8.328;2023-11-21T12:11:30;12.70;99.90
45735;DHT22;31446;49.632;8.328;2023-11-21T12:26:38;12.90;99.90
45735;DHT22;31446;49.632;8.328;2023-11-21T12:41:44;12.70;99.90
45735;DHT22;31446;49.632;8.328;2023-11-21T12:56:51;12.80;99.90
45735;DHT22;31446;49.632;8.328;2023-11-21T13:12:04;12.70;99.90
45735;DHT22;31446;49.632;8.328;2023-11-21T13:27:12;12.40;99.90
45735;DHT22;31446;49.632;8.328;2023-11-21T13:42:22;12.30;99.90
45735;DHT22;31446;49.632;8.328;2023-11-21T13:57:31;12.40;99.90
45735;DHT22;31446;49.632;8.328;2023-11-21T14:12:37;12.40;99.90
45735;DHT22;31446;49.632;8.328;2023-11-21T14:27:46;12.10;99.90
45735;DHT22;31446;49.632;8.328;2023-11-21T14:42:52;11.80;99.90
45735;DHT22;31446;49.632;8.328;2023-11-21T14:58:01;11.30;99.90
45735;DHT22;31446;49.632;8.328;2023-11-21T15:13:08;11.20;99.90
45735;DHT22;31446;49.632;8.328;2023-11-21T15:28:14;11.00;99.90
45735;DHT22;31446;49.632;8.328;2023-11-21T15:43:21;10.90;99.90
45735;DHT22;31446;49.632;8.328;2023-11-21T15:58:27;10.80;99.90
45735;DHT22;31446;49.632;8.328;2023-11-21T16:13:33;10.60;99.90
45735;DHT22;31446;49.632;8.328;2023-11-21T16:28:41;10.60;99.90
45735;DHT22;31446;49.632;8.328;2023-11-21T16:43:47;10.60;99.90
45735;DHT22;31446;49.632;8.328;2023-11-21T16:58:54;10.70;99.90
45735;DHT22;31446;49.632;8.328;2023-11-21T17:14:00;10.50;99.90
45735;DHT22;31446;49.632;8.328;2023-11-21T17:29:08;10.40;99.90
45735;DHT22;31446;49.632;8.328;2023-11-21T17:44:25;10.40;99.90
45735;DHT22;31446;49.632;8.328;2023-11-21T17:59:31;10.30;99.90
45735;DHT22;31446;49.632;8.328;2023-11-21T18:14:38;10.30;99.90
45735;DHT22;31446;49.632;8.328;2023-11-21T18:29:46;9.90;99.90
45735;DHT22;31446;49.632;8.328;2023-11-21T18:44:52;9.90;99.90
45735;DHT22;31446;49.632;8.328;2023-11-21T18:59:59;9.60;99.90
45735;DHT22;31446;49.632;8.328;2023-11-21T19:15:08;9.50;99.90
45735;DHT22;31446;49.632;8.328;2023-11-21T19:30:19;9.60;99.90
45735;DHT22;31446;49.632;8.328;2023-11-21T19:45:25;9.50;99.90
45735;DHT22;31446;49.632;8.328;2023-11-21T20:00:34;9.90;99.90
45735;DHT22;31446;49.632;8.328;2023-11-21T20:15:40;9.70;99.90
45735;DHT22;31446;49.632;8.328;2023-11-21T20:30:47;9.80;99.90
45735;DHT22;31446;49.632;8.328;2023-11-21T20:45:53;9.80;99.90
45735;DHT22;31446;49.632;8.328;2023-11-21T21:01:00;8.80;99.90
45735;DHT22;31446;49.632;8.328;2023-11-21T21:16:06;8.40;99.90
45735;DHT22;31446;49.632;8.328;2023-11-21T21:31:13;8.10;99.90
45735;DHT22;31446;49.632;8.328;2023-11-21T21:46:19;8.10;99.90
45735;DHT22;31446;49.632;8.328;2023-11-21T22:01:25;8.00;99.90
45735;DHT22;31446;49.632;8.328;2023-11-21T22:16:34;7.90;99.90
45735;DHT22;31446;49.632;8.328;2023-11-21T22:31:42;7.70;99.90
45735;DHT22;31446;49.632;8.328;2023-11-21T22:46:51;7.60;99.90
45735;DHT22;31446;49.632;8.328;2023-11-21T23:02:03;7.40;99.90
45735;DHT22;31446;49.632;8.328;2023-11-21T23:17:09;6.30;99.90
45735;DHT22;31446;49.632;8.328;2023-11-21T23:32:15;6.40;99.90
45735;DHT22;31446;49.632;8.328;2023-11-21T23:47:23;6.00;99.90
